createdAt,value
2022-10-30T00:01:07.609Z,101316.06
2022-10-30T00:03:34.286Z,101322.63
2022-10-30T00:06:04.555Z,101317.75
2022-10-30T00:08:31.543Z,101320.50
2022-10-30T00:11:05.342Z,101321.59
2022-10-30T00:13:32.033Z,101315.47
2022-10-30T00:15:58.715Z,101322.63
2022-10-30T00:18:25.487Z,101313.88
2022-10-30T00:20:52.132Z,101311.34
2022-10-30T00:23:20.357Z,101298.56
2022-10-30T00:25:47.168Z,101308.09
2022-10-30T00:28:13.955Z,101301.75
2022-10-30T00:30:41.673Z,101301.31
2022-10-30T00:33:08.310Z,101315.03
2022-10-30T00:35:35.190Z,101308.41
2022-10-30T00:38:02.780Z,101307.19
2022-10-30T00:40:29.702Z,101311.09
2022-10-30T00:42:56.754Z,101313.44
2022-10-30T00:45:23.402Z,101319.47
2022-10-30T00:47:53.603Z,101312.31
2022-10-30T00:53:03.927Z,101304.31
2022-10-30T00:55:37.240Z,101307.25
2022-10-30T00:58:07.858Z,101311.34
2022-10-30T01:00:35.323Z,101309.34
2022-10-30T01:03:02.873Z,101311.75
2022-10-30T01:05:31.537Z,101311.69
2022-10-30T01:07:58.624Z,101309.81
2022-10-30T01:10:26.142Z,101314.31
2022-10-30T01:12:53.919Z,101308.50
2022-10-30T01:15:29.553Z,101317.94
2022-10-30T01:18:07.970Z,101319.09
2022-10-30T01:21:01.319Z,101321.97
2022-10-30T01:23:41.790Z,101313.03
2022-10-30T01:26:47.582Z,101316.69
2022-10-30T01:29:28.430Z,101321.34
2022-10-30T01:32:01.103Z,101316.84
2022-10-30T01:34:56.757Z,101319.09
2022-10-30T01:37:48.271Z,101323.16
2022-10-30T01:40:17.523Z,101328.56
2022-10-30T01:42:50.777Z,101304.31
2022-10-30T01:45:26.547Z,101323.06
2022-10-30T01:48:09.924Z,101326.50
2022-10-30T01:51:10.469Z,101336.94
2022-10-30T01:53:51.723Z,101330.44
2022-10-30T01:57:01.783Z,101333.00
2022-10-30T01:59:39.674Z,101335.00
2022-10-30T02:02:08.798Z,101337.34
2022-10-30T02:04:36.386Z,101330.16
2022-10-30T02:07:03.894Z,101331.53
2022-10-30T02:09:34.646Z,101325.28
2022-10-30T02:12:02.288Z,101328.47
2022-10-30T02:14:34.995Z,101328.56
2022-10-30T02:17:06.273Z,101323.56
2022-10-30T02:19:33.082Z,101327.25
2022-10-30T02:22:02.372Z,101332.69
2022-10-30T02:24:29.989Z,101328.50
2022-10-30T02:26:56.714Z,101321.59
2022-10-30T02:29:23.752Z,101323.69
2022-10-30T02:31:50.692Z,101338.88
2022-10-30T02:34:17.375Z,101325.41
2022-10-30T02:36:44.233Z,101332.94
2022-10-30T02:39:11.528Z,101339.50
2022-10-30T02:41:38.565Z,101327.84
2022-10-30T02:44:06.559Z,101326.75
2022-10-30T02:46:34.481Z,101332.94
2022-10-30T02:49:01.274Z,101322.78
2022-10-30T02:51:27.960Z,101324.63
2022-10-30T02:53:54.709Z,101318.25
2022-10-30T02:56:21.534Z,101312.31
2022-10-30T02:58:48.306Z,101311.97
2022-10-30T03:01:17.735Z,101312.16
2022-10-30T03:03:45.579Z,101318.53
2022-10-30T03:06:15.664Z,101312.34
2022-10-30T03:08:43.039Z,101331.06
2022-10-30T03:11:13.472Z,101326.91
2022-10-30T03:13:43.013Z,101325.53
2022-10-30T03:16:15.645Z,101321.53
2022-10-30T03:18:42.749Z,101320.63
2022-10-30T03:21:13.226Z,101332.63
2022-10-30T03:23:40.157Z,101332.06
2022-10-30T03:26:07.324Z,101331.63
2022-10-30T03:28:46.437Z,101333.22
2022-10-30T03:31:16.808Z,101326.94
2022-10-30T03:33:44.131Z,101333.75
2022-10-30T03:36:13.433Z,101333.22
2022-10-30T03:38:40.804Z,101329.44
2022-10-30T03:41:09.645Z,101329.78
2022-10-30T03:43:36.423Z,101335.72
2022-10-30T03:46:03.670Z,101335.91
2022-10-30T03:48:30.718Z,101340.72
2022-10-30T03:50:59.621Z,101336.84
2022-10-30T03:53:28.700Z,101341.19
2022-10-30T03:56:03.683Z,101334.72
2022-10-30T03:58:39.818Z,101340.72
2022-10-30T04:01:10.463Z,101334.38
2022-10-30T04:03:40.247Z,101331.50
2022-10-30T04:06:08.956Z,101326.63
2022-10-30T04:08:35.819Z,101330.22
2022-10-30T04:11:03.515Z,101328.22
2022-10-30T04:13:30.590Z,101326.88
2022-10-30T04:15:58.265Z,101328.44
2022-10-30T04:18:26.231Z,101327.75
2022-10-30T04:20:53.645Z,101323.28
2022-10-30T04:23:21.405Z,101311.66
2022-10-30T04:25:48.315Z,101319.00
2022-10-30T04:28:15.580Z,101326.53
2022-10-30T04:30:43.295Z,101321.63
2022-10-30T04:33:13.843Z,101320.59
2022-10-30T04:35:41.996Z,101319.00
2022-10-30T04:38:14.435Z,101319.13
2022-10-30T04:40:43.869Z,101323.78
2022-10-30T04:43:12.483Z,101313.31
2022-10-30T04:45:40.142Z,101304.31
2022-10-30T04:48:14.661Z,101303.19
2022-10-30T04:50:43.383Z,101292.59
2022-10-30T04:53:14.155Z,101295.09
2022-10-30T04:55:41.610Z,101306.72
2022-10-30T04:58:10.905Z,101306.59
2022-10-30T05:00:39.616Z,101298.84
2022-10-30T05:03:19.542Z,101291.31
2022-10-30T05:05:48.071Z,101292.78
2022-10-30T05:08:14.815Z,101294.84
2022-10-30T05:10:41.667Z,101290.84
2022-10-30T05:13:11.569Z,101290.31
2022-10-30T05:15:39.273Z,101298.53
2022-10-30T05:18:06.093Z,101298.06
2022-10-30T05:20:32.923Z,101302.28
2022-10-30T05:23:00.188Z,101300.56
2022-10-30T05:25:27.644Z,101288.84
2022-10-30T05:28:01.089Z,101297.38
2022-10-30T05:30:30.838Z,101293.84
2022-10-30T05:33:00.435Z,101285.03
2022-10-30T05:35:29.571Z,101295.78
2022-10-30T05:37:57.177Z,101293.50
2022-10-30T05:40:24.152Z,101289.19
2022-10-30T05:42:51.590Z,101292.03
2022-10-30T05:45:19.074Z,101288.16
2022-10-30T05:47:55.680Z,101281.19
2022-10-30T05:50:22.919Z,101292.94
2022-10-30T05:53:09.906Z,101292.13
2022-10-30T05:55:38.662Z,101290.31
2022-10-30T05:58:12.416Z,101279.50
2022-10-30T06:00:44.336Z,101276.75
2022-10-30T06:03:14.692Z,101283.59
2022-10-30T06:05:45.447Z,101284.19
2022-10-30T06:08:13.695Z,101277.66
2022-10-30T06:10:40.530Z,101279.97
2022-10-30T06:13:16.238Z,101279.22
2022-10-30T06:15:50.526Z,101280.81
2022-10-30T06:18:17.405Z,101279.59
2022-10-30T06:20:47.074Z,101274.91
2022-10-30T06:23:23.289Z,101271.03
2022-10-30T06:25:55.902Z,101276.41
2022-10-30T06:28:55.975Z,101270.81
2022-10-30T06:31:22.875Z,101267.94
2022-10-30T06:33:51.644Z,101270.09
2022-10-30T06:36:18.737Z,101268.31
2022-10-30T06:38:45.529Z,101265.91
2022-10-30T06:41:15.488Z,101266.97
2022-10-30T06:44:01.276Z,101269.47
2022-10-30T06:46:33.754Z,101271.84
2022-10-30T06:49:01.189Z,101273.22
2022-10-30T06:51:29.826Z,101270.03
2022-10-30T06:53:58.398Z,101267.28
2022-10-30T06:56:40.421Z,101269.13
2022-10-30T06:59:27.336Z,101268.22
2022-10-30T07:02:11.589Z,101272.75
2022-10-30T07:04:45.760Z,101285.44
2022-10-30T07:07:13.486Z,101291.00
2022-10-30T07:09:40.463Z,101278.91
2022-10-30T07:12:08.244Z,101277.63
2022-10-30T07:14:53.269Z,101272.16
2022-10-30T07:17:35.081Z,101268.63
2022-10-30T07:20:08.700Z,101272.25
2022-10-30T07:22:39.150Z,101271.56
2022-10-30T07:25:07.611Z,101261.47
2022-10-30T07:27:53.271Z,101254.16
2022-10-30T07:30:35.122Z,101258.53
2022-10-30T07:33:15.731Z,101257.31
2022-10-30T07:36:02.516Z,101254.75
2022-10-30T07:38:52.908Z,101262.09
2022-10-30T07:41:34.241Z,101264.78
2022-10-30T07:44:33.514Z,101269.53
2022-10-30T07:47:25.835Z,101266.72
2022-10-30T07:49:55.597Z,101266.16
2022-10-30T07:52:22.350Z,101269.56
2022-10-30T07:54:49.550Z,101271.47
2022-10-30T07:57:40.650Z,101272.31
2022-10-30T08:00:26.032Z,101271.75
2022-10-30T08:03:05.102Z,101270.31
2022-10-30T08:05:51.375Z,101271.59
2022-10-30T08:08:26.632Z,101267.03
2022-10-30T08:11:05.762Z,101278.84
2022-10-30T08:13:32.660Z,101282.53
2022-10-30T08:15:59.471Z,101273.84
2022-10-30T08:18:26.779Z,101292.41
2022-10-30T08:20:53.618Z,101275.84
2022-10-30T08:23:21.817Z,101275.38
2022-10-30T08:25:48.670Z,101266.59
2022-10-30T08:28:15.818Z,101278.97
2022-10-30T08:30:45.286Z,101272.44
2022-10-30T08:33:15.516Z,101271.69
2022-10-30T08:36:02.147Z,101278.72
2022-10-30T08:38:32.577Z,101271.91
2022-10-30T08:41:22.464Z,101275.53
2022-10-30T08:43:54.321Z,101275.00
2022-10-30T08:46:24.317Z,101275.88
2022-10-30T08:48:51.251Z,101277.41
2022-10-30T08:51:18.568Z,101270.09
2022-10-30T08:53:49.912Z,101274.59
2022-10-30T08:56:17.693Z,101272.50
2022-10-30T08:59:00.866Z,101280.88
2022-10-30T09:01:27.971Z,101284.41
2022-10-30T09:04:20.849Z,101291.66
2022-10-30T09:07:22.645Z,101291.97
2022-10-30T09:10:27.900Z,101296.75
2022-10-30T09:12:58.653Z,101295.06
2022-10-30T09:15:26.341Z,101287.00
2022-10-30T09:18:00.748Z,101290.34
2022-10-30T09:20:29.627Z,101285.41
2022-10-30T09:22:56.949Z,101282.47
2022-10-30T09:25:24.021Z,101275.25
2022-10-30T09:28:09.402Z,101273.28
2022-10-30T09:30:57.326Z,101282.81
2022-10-30T09:33:25.717Z,101267.47
2022-10-30T09:36:21.304Z,101284.94
2022-10-30T09:38:49.293Z,101276.53
2022-10-30T09:41:50.118Z,101278.72
2022-10-30T09:44:27.364Z,101292.19
2022-10-30T09:47:25.581Z,101278.66
2022-10-30T09:49:59.523Z,101286.88
2022-10-30T09:52:28.909Z,101275.59
2022-10-30T09:55:09.134Z,101278.94
2022-10-30T09:57:36.003Z,101278.72
2022-10-30T10:00:22.940Z,101277.84
2022-10-30T10:03:09.640Z,101280.97
2022-10-30T10:05:55.519Z,101285.75
2022-10-30T10:08:48.490Z,101288.81
2022-10-30T10:11:40.915Z,101287.78
2022-10-30T10:14:14.567Z,101284.81
2022-10-30T10:16:42.288Z,101276.97
2022-10-30T10:19:33.890Z,101282.19
2022-10-30T10:22:03.461Z,101283.53
2022-10-30T10:24:36.573Z,101282.59
2022-10-30T10:27:23.513Z,101281.53
2022-10-30T10:30:20.670Z,101283.81
2022-10-30T10:32:50.929Z,101283.78
2022-10-30T10:35:23.841Z,101288.50
2022-10-30T10:38:18.674Z,101279.16
2022-10-30T10:41:19.323Z,101287.66
2022-10-30T10:44:24.185Z,101284.41
2022-10-30T10:47:01.718Z,101287.94
2022-10-30T10:49:48.138Z,101275.78
2022-10-30T10:52:22.254Z,101280.78
2022-10-30T10:54:59.297Z,101274.53
2022-10-30T10:57:29.425Z,101273.47
2022-10-30T11:00:13.043Z,101264.94
2022-10-30T11:03:05.491Z,101271.94
2022-10-30T11:05:43.367Z,101269.69
2022-10-30T11:08:28.659Z,101262.78
2022-10-30T11:11:05.744Z,101265.13
2022-10-30T11:13:41.380Z,101268.53
2022-10-30T11:16:27.014Z,101267.44
2022-10-30T11:18:58.768Z,101264.78
2022-10-30T11:21:26.998Z,101267.81
2022-10-30T11:23:54.234Z,101265.28
2022-10-30T11:26:21.297Z,101260.75
2022-10-30T11:28:47.945Z,101265.66
2022-10-30T11:31:19.091Z,101266.66
2022-10-30T11:33:46.239Z,101269.41
2022-10-30T11:36:16.144Z,101264.44
2022-10-30T11:38:43.060Z,101260.91
2022-10-30T11:41:13.237Z,101265.78
2022-10-30T11:43:41.237Z,101268.63
2022-10-30T11:46:11.167Z,101267.31
2022-10-30T11:48:40.081Z,101255.69
2022-10-30T11:51:07.040Z,101273.69
2022-10-30T11:53:42.258Z,101267.69
2022-10-30T11:56:22.807Z,101257.34
2022-10-30T11:58:53.399Z,101266.25
2022-10-30T12:01:25.357Z,101253.59
2022-10-30T12:03:53.814Z,101251.88
2022-10-30T12:06:25.507Z,101248.75
2022-10-30T12:09:03.607Z,101254.44
2022-10-30T12:11:32.645Z,101245.94
2022-10-30T12:13:59.503Z,101236.31
2022-10-30T12:16:26.860Z,101242.69
2022-10-30T12:19:01.178Z,101247.50
2022-10-30T12:21:31.019Z,101252.81
2022-10-30T12:24:06.928Z,101247.66
2022-10-30T12:26:34.718Z,101261.06
2022-10-30T12:29:03.904Z,101250.97
2022-10-30T12:31:41.477Z,101255.78
2022-10-30T12:34:19.944Z,101249.50
2022-10-30T12:36:52.805Z,101255.78
2022-10-30T12:39:27.282Z,101254.69
2022-10-30T12:42:02.970Z,101243.94
2022-10-30T12:44:40.797Z,101244.53
2022-10-30T12:47:07.524Z,101257.63
2022-10-30T12:49:41.841Z,101248.13
2022-10-30T12:52:47.602Z,101247.84
2022-10-30T12:55:37.216Z,101251.47
2022-10-30T12:58:16.075Z,101253.19
2022-10-30T13:00:56.092Z,101250.09
2022-10-30T13:03:35.911Z,101259.16
2022-10-30T13:06:10.003Z,101263.88
2022-10-30T13:08:44.968Z,101260.97
2022-10-30T13:11:18.846Z,101260.97
2022-10-30T13:13:53.253Z,101253.16
2022-10-30T13:16:28.267Z,101257.78
2022-10-30T13:19:01.519Z,101247.59
2022-10-30T13:21:36.183Z,101256.56
2022-10-30T13:24:09.721Z,101257.63
2022-10-30T13:26:40.560Z,101253.84
2022-10-30T13:29:30.770Z,101254.16
2022-10-30T13:32:23.702Z,101264.81
2022-10-30T13:35:02.826Z,101263.41
2022-10-30T13:37:54.210Z,101256.56
2022-10-30T13:40:27.614Z,101259.78
2022-10-30T13:43:04.852Z,101253.78
2022-10-30T13:46:05.697Z,101238.44
2022-10-30T13:48:58.347Z,101242.09
2022-10-30T13:51:28.362Z,101245.59
2022-10-30T13:54:22.845Z,101251.16
2022-10-30T13:56:51.009Z,101245.53
2022-10-30T13:59:21.261Z,101242.16
2022-10-30T14:02:01.638Z,101249.06
2022-10-30T14:04:47.716Z,101235.19
2022-10-30T14:07:40.954Z,101245.59
2022-10-30T14:10:16.122Z,101230.03
2022-10-30T14:12:55.253Z,101238.34
2022-10-30T14:15:31.805Z,101241.16
2022-10-30T14:18:13.990Z,101255.03
2022-10-30T14:20:41.845Z,101259.25
2022-10-30T14:23:12.105Z,101260.75
2022-10-30T14:25:39.248Z,101265.34
2022-10-30T14:28:06.517Z,101273.94
2022-10-30T14:30:34.592Z,101269.25
2022-10-30T14:33:01.461Z,101279.47
2022-10-30T14:35:42.476Z,101271.41
2022-10-30T14:38:09.417Z,101275.44
2022-10-30T14:40:53.806Z,101284.84
2022-10-30T14:43:34.585Z,101291.06
2022-10-30T14:46:20.346Z,101285.22
2022-10-30T14:48:57.784Z,101294.72
2022-10-30T14:51:30.299Z,101304.22
2022-10-30T14:54:00.374Z,101308.47
2022-10-30T14:56:45.714Z,101308.75
2022-10-30T14:59:22.903Z,101321.56
2022-10-30T15:02:14.072Z,101326.94
2022-10-30T15:04:57.034Z,101335.34
2022-10-30T15:07:31.151Z,101344.13
2022-10-30T15:10:03.780Z,101343.50
2022-10-30T15:12:58.342Z,101354.41
2022-10-30T15:15:28.311Z,101360.19
2022-10-30T15:18:19.483Z,101367.00
2022-10-30T15:20:54.513Z,101361.50
2022-10-30T15:23:31.320Z,101367.00
2022-10-30T15:26:10.107Z,101379.41
2022-10-30T15:28:38.549Z,101381.31
2022-10-30T15:31:08.850Z,101382.97
2022-10-30T15:33:38.069Z,101388.84
2022-10-30T15:36:07.740Z,101391.06
2022-10-30T15:38:34.502Z,101387.81
2022-10-30T15:41:02.860Z,101387.44
2022-10-30T15:43:34.478Z,101394.97
2022-10-30T15:46:01.530Z,101390.72
2022-10-30T15:48:31.642Z,101394.13
2022-10-30T15:51:01.719Z,101382.00
2022-10-30T15:53:40.864Z,101391.88
2022-10-30T15:56:13.618Z,101399.22
2022-10-30T15:58:44.786Z,101397.56
2022-10-30T16:01:27.822Z,101407.94
2022-10-30T16:03:55.947Z,101400.69
2022-10-30T16:06:27.040Z,101397.38
2022-10-30T16:08:54.325Z,101393.72
2022-10-30T16:11:22.946Z,101396.16
2022-10-30T16:13:50.168Z,101408.34
2022-10-30T16:16:19.968Z,101418.31
2022-10-30T16:18:47.096Z,101405.78
2022-10-30T16:21:16.186Z,101403.88
2022-10-30T16:23:49.186Z,101401.31
2022-10-30T16:26:39.152Z,101406.00
2022-10-30T16:29:17.138Z,101403.22
2022-10-30T16:31:50.279Z,101396.22
2022-10-30T16:34:26.621Z,101410.44
2022-10-30T16:36:56.731Z,101404.00
2022-10-30T16:39:24.316Z,101405.66
2022-10-30T16:41:51.856Z,101398.97
2022-10-30T16:44:43.685Z,101405.06
2022-10-30T16:47:32.187Z,101404.28
2022-10-30T16:50:01.659Z,101397.44
2022-10-30T16:52:38.086Z,101397.97
2022-10-30T16:55:27.092Z,101407.25
2022-10-30T16:58:09.661Z,101417.81
2022-10-30T17:00:39.663Z,101420.78
2022-10-30T17:06:07.283Z,101436.81
2022-10-30T17:08:53.884Z,101447.13
2022-10-30T17:11:37.519Z,101448.41
2022-10-30T17:27:03.712Z,101453.28
2022-10-30T17:29:55.233Z,101468.13
2022-10-30T17:35:41.968Z,101473.81
2022-10-30T17:38:48.647Z,101484.56
2022-10-30T17:41:26.504Z,101472.13
2022-10-30T17:47:39.278Z,101472.84
2022-10-30T17:50:09.696Z,101477.53
2022-10-30T17:52:42.497Z,101493.09
2022-10-30T17:55:25.577Z,101497.22
2022-10-30T18:00:50.192Z,101494.78
2022-10-30T18:03:24.855Z,101489.28
2022-10-30T18:05:56.602Z,101500.09
2022-10-30T18:08:26.102Z,101501.81
2022-10-30T18:10:55.100Z,101513.22
2022-10-30T18:13:22.355Z,101520.31
2022-10-30T18:15:54.122Z,101528.19
2022-10-30T18:18:21.566Z,101544.13
2022-10-30T18:20:50.805Z,101543.09
2022-10-30T18:23:46.675Z,101547.72
2022-10-30T18:26:15.020Z,101566.78
2022-10-30T18:29:00.129Z,101553.09
2022-10-30T18:31:34.901Z,101563.38
2022-10-30T18:34:02.344Z,101569.66
2022-10-30T18:36:29.571Z,101555.03
2022-10-30T18:38:58.562Z,101564.16
2022-10-30T18:41:45.633Z,101564.16
2022-10-30T18:44:17.567Z,101564.78
2022-10-30T18:46:44.767Z,101566.03
2022-10-30T18:49:11.990Z,101556.88
2022-10-30T18:51:42.474Z,101583.41
2022-10-30T18:54:17.401Z,101587.00
2022-10-30T18:57:10.136Z,101596.78
2022-10-30T18:59:36.994Z,101589.69
2022-10-30T19:02:04.300Z,101587.41
2022-10-30T19:07:39.576Z,101570.72
2022-10-30T19:10:17.303Z,101587.81
2022-10-30T19:13:10.524Z,101577.81
2022-10-30T19:15:34.438Z,101577.09
2022-10-30T19:18:02.998Z,101568.69
2022-10-30T19:20:50.626Z,101568.63
2022-10-30T19:23:22.290Z,101568.69
2022-10-30T19:25:51.435Z,101558.47
2022-10-30T19:28:19.807Z,101560.47
2022-10-30T19:30:55.045Z,101565.75
2022-10-30T19:33:23.548Z,101566.31
2022-10-30T19:35:58.199Z,101572.16
2022-10-30T19:38:25.608Z,101587.38
2022-10-30T19:40:54.082Z,101584.19
2022-10-30T19:43:20.988Z,101574.72
2022-10-30T19:45:51.289Z,101578.06
2022-10-30T19:48:40.636Z,101582.75
2022-10-30T19:51:12.079Z,101578.59
2022-10-30T19:53:39.945Z,101574.94
2022-10-30T19:56:09.891Z,101590.41
2022-10-30T19:58:37.021Z,101580.31
2022-10-30T20:01:03.844Z,101597.63
2022-10-30T20:03:30.874Z,101582.69
2022-10-30T20:05:57.691Z,101581.56
2022-10-30T20:08:25.834Z,101597.34
2022-10-30T20:10:55.115Z,101598.47
2022-10-30T20:13:25.854Z,101608.47
2022-10-30T20:15:54.319Z,101608.22
2022-10-30T20:18:23.518Z,101609.25
2022-10-30T20:20:52.412Z,101621.69
2022-10-30T20:23:23.268Z,101619.03
2022-10-30T20:25:52.304Z,101613.47
2022-10-30T20:28:28.860Z,101611.50
2022-10-30T20:30:56.223Z,101609.00
2022-10-30T20:33:25.606Z,101612.38
2022-10-30T20:35:59.611Z,101619.59
2022-10-30T20:38:32.982Z,101617.84
2022-10-30T20:41:02.898Z,101613.78
2022-10-30T20:43:39.951Z,101615.47
2022-10-30T20:46:09.465Z,101617.41
2022-10-30T20:48:38.643Z,101604.28
2022-10-30T20:51:12.720Z,101619.13
2022-10-30T20:53:42.550Z,101624.22
2022-10-30T20:56:09.411Z,101622.19
2022-10-30T20:58:36.321Z,101638.69
2022-10-30T21:01:03.304Z,101642.56
2022-10-30T21:03:30.305Z,101639.91
2022-10-30T21:06:02.073Z,101653.81
2022-10-30T21:08:37.991Z,101661.31
2022-10-30T21:11:18.997Z,101649.78
2022-10-30T21:13:51.335Z,101653.34
2022-10-30T21:16:28.201Z,101666.00
2022-10-30T21:22:13.966Z,101669.22
2022-10-30T21:25:10.498Z,101649.09
2022-10-30T21:30:23.390Z,101672.28
2022-10-30T21:33:18.240Z,101658.56
2022-10-30T21:38:49.047Z,101680.88
2022-10-30T21:41:20.725Z,101664.06
2022-10-30T21:43:56.313Z,101682.00
2022-10-30T21:46:26.055Z,101675.94
2022-10-30T21:48:57.473Z,101661.31
2022-10-30T21:51:41.309Z,101671.72
2022-10-30T21:54:18.229Z,101671.13
2022-10-30T21:56:47.447Z,101677.69
2022-10-30T21:59:24.820Z,101673.09
2022-10-30T22:02:04.460Z,101685.31
2022-10-30T22:04:38.420Z,101667.72
2022-10-30T22:09:58.424Z,101651.94
2022-10-30T22:12:32.887Z,101663.63
2022-10-30T22:15:03.881Z,101669.47
2022-10-30T22:17:38.109Z,101669.19
2022-10-30T22:20:05.783Z,101670.78
2022-10-30T22:22:32.942Z,101675.56
2022-10-30T22:25:00.582Z,101668.97
2022-10-30T22:27:30.080Z,101688.84
2022-10-30T22:29:57.364Z,101692.13
2022-10-30T22:38:20.857Z,101684.75
2022-10-30T22:40:48.555Z,101681.78
2022-10-30T22:43:15.863Z,101676.16
2022-10-30T22:45:44.961Z,101680.88
2022-10-30T22:48:12.872Z,101675.84
2022-10-30T22:59:13.189Z,101696.97
2022-10-30T23:01:48.210Z,101678.69
2022-10-30T23:07:13.312Z,101702.25
2022-10-30T23:09:43.558Z,101695.19
2022-10-30T23:12:11.832Z,101680.25
2022-10-30T23:14:39.068Z,101693.19
2022-10-30T23:17:13.957Z,101691.81
2022-10-30T23:19:49.754Z,101676.03
2022-10-30T23:22:20.654Z,101681.88
2022-10-30T23:24:50.972Z,101701.19
2022-10-30T23:27:23.563Z,101693.66
2022-10-30T23:30:09.693Z,101682.47
2022-10-30T23:32:38.445Z,101685.44
2022-10-30T23:37:56.976Z,101676.63
2022-10-30T23:40:29.067Z,101679.13
2022-10-30T23:42:59.926Z,101697.78
2022-10-30T23:45:30.532Z,101695.59
2022-10-30T23:48:15.182Z,101699.59
2022-10-30T23:51:13.517Z,101680.63
2022-10-30T23:53:41.158Z,101690.56
2022-10-30T23:56:09.029Z,101680.88
